sensor_id;sensor_type;location;lat;lon;timestamp;pressure;altitude;pressure_sealevel;temperature;humidity
20350;BME280;10332;50.208;18.988;2023-02-28T00:01:33;99224.44;;;2.28;49.95
20350;BME280;10332;50.208;18.988;2023-02-28T00:04:01;99229.59;;;2.28;49.96
20350;BME280;10332;50.208;18.988;2023-02-28T00:06:29;99227.88;;;2.27;49.86
20350;BME280;10332;50.208;18.988;2023-02-28T00:08:56;99221.13;;;2.20;50.16
20350;BME280;10332;50.208;18.988;2023-02-28T00:11:24;99227.91;;;2.25;50.00
20350;BME280;10332;50.208;18.988;2023-02-28T00:13:51;99225.50;;;2.16;50.50
20350;BME280;10332;50.208;18.988;2023-02-28T00:16:21;99228.94;;;2.14;50.63
20350;BME280;10332;50.208;18.988;2023-02-28T00:18:50;99225.34;;;2.24;50.34
20350;BME280;10332;50.208;18.988;2023-02-28T00:21:19;99228.84;;;2.20;50.65
20350;BME280;10332;50.208;18.988;2023-02-28T00:23:47;99227.22;;;2.16;50.78
20350;BME280;10332;50.208;18.988;2023-02-28T00:26:14;99234.81;;;2.22;50.77
20350;BME280;10332;50.208;18.988;2023-02-28T00:28:42;99230.69;;;2.12;51.21
20350;BME280;10332;50.208;18.988;2023-02-28T00:31:09;99224.63;;;2.17;50.78
20350;BME280;10332;50.208;18.988;2023-02-28T00:33:37;99228.88;;;2.18;50.93
20350;BME280;10332;50.208;18.988;2023-02-28T00:36:10;99232.50;;;2.05;51.28
20350;BME280;10332;50.208;18.988;2023-02-28T00:38:40;99230.00;;;2.02;51.39
20350;BME280;10332;50.208;18.988;2023-02-28T00:41:08;99228.38;;;1.95;51.45
20350;BME280;10332;50.208;18.988;2023-02-28T00:43:38;99240.31;;;2.01;51.58
20350;BME280;10332;50.208;18.988;2023-02-28T00:46:07;99240.50;;;1.88;52.16
20350;BME280;10332;50.208;18.988;2023-02-28T00:48:35;99240.53;;;1.87;52.25
20350;BME280;10332;50.208;18.988;2023-02-28T00:51:03;99235.34;;;1.88;52.21
20350;BME280;10332;50.208;18.988;2023-02-28T00:53:31;99238.75;;;1.92;52.16
20350;BME280;10332;50.208;18.988;2023-02-28T00:56:00;99238.78;;;1.90;52.18
20350;BME280;10332;50.208;18.988;2023-02-28T00:58:27;99235.38;;;1.87;52.42
20350;BME280;10332;50.208;18.988;2023-02-28T01:00:55;99239.53;;;1.95;51.94
20350;BME280;10332;50.208;18.988;2023-02-28T01:03:23;99240.47;;;1.91;52.33
20350;BME280;10332;50.208;18.988;2023-02-28T01:05:51;99236.22;;;1.87;52.40
20350;BME280;10332;50.208;18.988;2023-02-28T01:08:20;99242.25;;;1.86;52.69
20350;BME280;10332;50.208;18.988;2023-02-28T01:10:48;99247.31;;;1.92;52.73
20350;BME280;10332;50.208;18.988;2023-02-28T01:13:16;99241.19;;;2.01;52.58
20350;BME280;10332;50.208;18.988;2023-02-28T01:15:50;99238.50;;;2.06;52.28
20350;BME280;10332;50.208;18.988;2023-02-28T01:18:20;99245.25;;;2.16;52.07
20350;BME280;10332;50.208;18.988;2023-02-28T01:20:49;99240.19;;;2.10;52.32
20350;BME280;10332;50.208;18.988;2023-02-28T01:23:16;99235.91;;;2.09;52.33
20350;BME280;10332;50.208;18.988;2023-02-28T01:25:44;99233.41;;;2.04;52.49
20350;BME280;10332;50.208;18.988;2023-02-28T01:28:11;99221.50;;;1.95;52.46
20350;BME280;10332;50.208;18.988;2023-02-28T01:30:39;99233.66;;;1.86;52.58
20350;BME280;10332;50.208;18.988;2023-02-28T01:33:06;99227.78;;;1.78;52.88
20350;BME280;10332;50.208;18.988;2023-02-28T01:35:35;99229.72;;;1.63;53.25
20350;BME280;10332;50.208;18.988;2023-02-28T01:38:03;99221.28;;;1.54;53.58
20350;BME280;10332;50.208;18.988;2023-02-28T01:40:47;99217.84;;;1.53;53.63
20350;BME280;10332;50.208;18.988;2023-02-28T01:43:27;99217.22;;;1.36;54.50
20350;BME280;10332;50.208;18.988;2023-02-28T01:45:57;99222.38;;;1.33;54.85
20350;BME280;10332;50.208;18.988;2023-02-28T01:48:32;99218.25;;;1.21;55.07
20350;BME280;10332;50.208;18.988;2023-02-28T01:51:17;99214.88;;;1.16;54.41
20350;BME280;10332;50.208;18.988;2023-02-28T01:53:56;99217.56;;;1.07;55.18
20350;BME280;10332;50.208;18.988;2023-02-28T01:56:33;99220.97;;;1.07;55.03
20350;BME280;10332;50.208;18.988;2023-02-28T01:59:03;99215.69;;;1.21;54.84
20350;BME280;10332;50.208;18.988;2023-02-28T02:01:31;99220.88;;;1.15;55.17
20350;BME280;10332;50.208;18.988;2023-02-28T02:04:02;99214.91;;;1.14;55.12
20350;BME280;10332;50.208;18.988;2023-02-28T02:06:38;99217.75;;;0.92;55.88
20350;BME280;10332;50.208;18.988;2023-02-28T02:09:07;99216.03;;;0.89;56.21
20350;BME280;10332;50.208;18.988;2023-02-28T02:11:36;99217.00;;;0.80;56.45
20350;BME280;10332;50.208;18.988;2023-02-28T02:17:16;99215.25;;;0.84;56.35
20350;BME280;10332;50.208;18.988;2023-02-28T02:34:17;99212.34;;;0.32;59.93
20350;BME280;10332;50.208;18.988;2023-02-28T02:37:56;99219.31;;;0.16;60.92
20350;BME280;10332;50.208;18.988;2023-02-28T02:40:19;99214.97;;;0.24;60.58
20350;BME280;10332;50.208;18.988;2023-02-28T02:43:19;99215.03;;;0.18;61.38
20350;BME280;10332;50.208;18.988;2023-02-28T02:45:55;99211.47;;;0.33;60.59
20350;BME280;10332;50.208;18.988;2023-02-28T02:48:28;99209.00;;;0.23;61.46
20350;BME280;10332;50.208;18.988;2023-02-28T02:51:04;99202.19;;;0.16;61.90
20350;BME280;10332;50.208;18.988;2023-02-28T02:53:47;99210.78;;;0.14;62.34
20350;BME280;10332;50.208;18.988;2023-02-28T02:56:24;99208.19;;;0.18;62.35
20350;BME280;10332;50.208;18.988;2023-02-28T02:59:01;99208.28;;;0.09;62.95
20350;BME280;10332;50.208;18.988;2023-02-28T03:01:31;99213.44;;;0.05;63.19
20350;BME280;10332;50.208;18.988;2023-02-28T03:04:12;99216.88;;;0.02;63.21
20350;BME280;10332;50.208;18.988;2023-02-28T03:06:41;99213.53;;;-0.08;63.99
20350;BME280;10332;50.208;18.988;2023-02-28T03:09:09;99220.44;;;-0.17;64.54
20350;BME280;10332;50.208;18.988;2023-02-28T03:11:38;99222.09;;;-0.10;64.24
20350;BME280;10332;50.208;18.988;2023-02-28T03:26:07;99215.97;;;0.06;63.42
20350;BME280;10332;50.208;18.988;2023-02-28T03:31:40;99223.78;;;-0.06;64.80
20350;BME280;10332;50.208;18.988;2023-02-28T03:36:46;99226.38;;;-0.12;65.47
20350;BME280;10332;50.208;18.988;2023-02-28T03:39:28;99222.94;;;-0.11;65.42
20350;BME280;10332;50.208;18.988;2023-02-28T03:42:08;99225.50;;;-0.11;65.29
20350;BME280;10332;50.208;18.988;2023-02-28T03:44:53;99222.13;;;-0.13;65.49
20350;BME280;10332;50.208;18.988;2023-02-28T03:50:34;99228.22;;;-0.31;67.43
20350;BME280;10332;50.208;18.988;2023-02-28T03:53:14;99231.69;;;-0.38;68.05
20350;BME280;10332;50.208;18.988;2023-02-28T03:55:54;99236.78;;;-0.37;68.09
20350;BME280;10332;50.208;18.988;2023-02-28T03:58:39;99234.28;;;-0.41;68.58
20350;BME280;10332;50.208;18.988;2023-02-28T04:01:20;99229.19;;;-0.49;69.25
20350;BME280;10332;50.208;18.988;2023-02-28T04:03:50;99240.25;;;-0.45;69.30
20350;BME280;10332;50.208;18.988;2023-02-28T04:06:21;99246.28;;;-0.45;69.24
20350;BME280;10332;50.208;18.988;2023-02-28T04:08:50;99242.88;;;-0.50;69.96
20350;BME280;10332;50.208;18.988;2023-02-28T04:11:38;99240.28;;;-0.48;69.85
20350;BME280;10332;50.208;18.988;2023-02-28T04:14:08;99243.72;;;-0.51;69.73
20350;BME280;10332;50.208;18.988;2023-02-28T04:16:40;99241.16;;;-0.51;70.18
20350;BME280;10332;50.208;18.988;2023-02-28T04:19:10;99241.97;;;-0.46;69.63
20350;BME280;10332;50.208;18.988;2023-02-28T04:21:44;99242.00;;;-0.49;70.00
20350;BME280;10332;50.208;18.988;2023-02-28T04:24:16;99252.22;;;-0.40;70.07
20350;BME280;10332;50.208;18.988;2023-02-28T04:26:48;99253.19;;;-0.61;71.43
20350;BME280;10332;50.208;18.988;2023-02-28T04:29:34;99262.59;;;-0.66;72.09
20350;BME280;10332;50.208;18.988;2023-02-28T04:32:03;99259.19;;;-0.74;72.72
20350;BME280;10332;50.208;18.988;2023-02-28T04:34:32;99260.94;;;-0.77;73.11
20350;BME280;10332;50.208;18.988;2023-02-28T04:37:00;99266.06;;;-0.79;73.45
20350;BME280;10332;50.208;18.988;2023-02-28T04:39:40;99274.63;;;-0.84;73.89
20350;BME280;10332;50.208;18.988;2023-02-28T04:42:08;99266.88;;;-0.68;73.54
20350;BME280;10332;50.208;18.988;2023-02-28T04:44:36;99271.16;;;-0.73;73.82
20350;BME280;10332;50.208;18.988;2023-02-28T04:47:04;99273.75;;;-0.77;74.16
20350;BME280;10332;50.208;18.988;2023-02-28T04:49:32;99260.94;;;-0.82;74.83
20350;BME280;10332;50.208;18.988;2023-02-28T04:51:59;99260.09;;;-0.90;75.22
20350;BME280;10332;50.208;18.988;2023-02-28T04:54:27;99263.53;;;-0.87;75.09
20350;BME280;10332;50.208;18.988;2023-02-28T04:56:55;99266.09;;;-0.88;75.38
20350;BME280;10332;50.208;18.988;2023-02-28T04:59:23;99272.91;;;-0.79;75.22
20350;BME280;10332;50.208;18.988;2023-02-28T05:01:51;99273.78;;;-0.91;75.74
20350;BME280;10332;50.208;18.988;2023-02-28T05:04:18;99266.09;;;-0.91;75.89
20350;BME280;10332;50.208;18.988;2023-02-28T05:06:46;99261.00;;;-0.96;76.22
20350;BME280;10332;50.208;18.988;2023-02-28T05:09:13;99266.94;;;-0.84;75.61
20350;BME280;10332;50.208;18.988;2023-02-28T05:11:41;99268.69;;;-0.90;76.03
20350;BME280;10332;50.208;18.988;2023-02-28T05:14:13;99265.25;;;-0.92;75.94
20350;BME280;10332;50.208;18.988;2023-02-28T05:16:41;99269.56;;;-0.98;76.20
20350;BME280;10332;50.208;18.988;2023-02-28T05:19:09;99261.81;;;-0.91;76.32
20350;BME280;10332;50.208;18.988;2023-02-28T05:21:50;99265.28;;;-1.01;76.54
20350;BME280;10332;50.208;18.988;2023-02-28T05:24:19;99267.84;;;-0.95;76.26
20350;BME280;10332;50.208;18.988;2023-02-28T05:26:52;99264.44;;;-0.97;76.35
20350;BME280;10332;50.208;18.988;2023-02-28T05:29:20;99272.13;;;-0.97;76.38
20350;BME280;10332;50.208;18.988;2023-02-28T05:31:48;99277.22;;;-1.00;76.53
20350;BME280;10332;50.208;18.988;2023-02-28T05:34:16;99277.25;;;-0.98;76.55
20350;BME280;10332;50.208;18.988;2023-02-28T05:36:44;99278.09;;;-0.98;76.74
20350;BME280;10332;50.208;18.988;2023-02-28T05:39:11;99280.66;;;-0.95;76.59
20350;BME280;10332;50.208;18.988;2023-02-28T05:41:43;99290.03;;;-1.01;76.59
20350;BME280;10332;50.208;18.988;2023-02-28T05:44:11;99283.22;;;-0.98;76.96
20350;BME280;10332;50.208;18.988;2023-02-28T05:46:39;99292.63;;;-1.03;77.11
20350;BME280;10332;50.208;18.988;2023-02-28T05:49:07;99296.00;;;-0.99;77.14
20350;BME280;10332;50.208;18.988;2023-02-28T05:51:34;99296.00;;;-0.92;76.99
20350;BME280;10332;50.208;18.988;2023-02-28T05:54:03;99300.31;;;-0.97;77.12
20350;BME280;10332;50.208;18.988;2023-02-28T05:56:32;99298.56;;;-0.87;76.94
20350;BME280;10332;50.208;18.988;2023-02-28T05:59:01;99291.75;;;-0.90;77.03
20350;BME280;10332;50.208;18.988;2023-02-28T06:01:47;99295.13;;;-0.81;76.80
20350;BME280;10332;50.208;18.988;2023-02-28T06:04:20;99300.25;;;-0.77;76.45
20350;BME280;10332;50.208;18.988;2023-02-28T06:06:58;99307.88;;;-0.59;75.70
20350;BME280;10332;50.208;18.988;2023-02-28T06:09:25;99309.59;;;-0.65;75.61
20350;BME280;10332;50.208;18.988;2023-02-28T06:11:53;99302.75;;;-0.60;75.77
20350;BME280;10332;50.208;18.988;2023-02-28T06:14:21;99311.28;;;-0.64;76.02
20350;BME280;10332;50.208;18.988;2023-02-28T06:16:48;99316.38;;;-0.55;75.93
20350;BME280;10332;50.208;18.988;2023-02-28T06:19:16;99314.72;;;-0.59;75.82
20350;BME280;10332;50.208;18.988;2023-02-28T06:21:44;99324.06;;;-0.49;75.87
20350;BME280;10332;50.208;18.988;2023-02-28T06:24:12;99327.47;;;-0.44;75.40
20350;BME280;10332;50.208;18.988;2023-02-28T06:26:39;99329.91;;;-0.19;74.83
20350;BME280;10332;50.208;18.988;2023-02-28T06:29:07;99327.44;;;-0.35;75.00
20350;BME280;10332;50.208;18.988;2023-02-28T06:31:35;99327.38;;;-0.27;75.01
20350;BME280;10332;50.208;18.988;2023-02-28T06:34:02;99334.22;;;-0.23;74.88
20350;BME280;10332;50.208;18.988;2023-02-28T06:36:30;99325.59;;;-0.10;74.39
20350;BME280;10332;50.208;18.988;2023-02-28T06:38:57;99330.69;;;-0.02;74.64
20350;BME280;10332;50.208;18.988;2023-02-28T06:41:26;99332.38;;;-0.01;74.28
20350;BME280;10332;50.208;18.988;2023-02-28T06:43:55;99328.00;;;0.19;73.72
20350;BME280;10332;50.208;18.988;2023-02-28T06:46:23;99327.16;;;0.16;74.14
20350;BME280;10332;50.208;18.988;2023-02-28T06:48:50;99324.47;;;0.33;73.93
20350;BME280;10332;50.208;18.988;2023-02-28T06:51:20;99334.72;;;0.36;73.83
20350;BME280;10332;50.208;18.988;2023-02-28T06:53:50;99329.47;;;0.54;73.17
20350;BME280;10332;50.208;18.988;2023-02-28T06:56:18;99329.50;;;0.45;73.23
20350;BME280;10332;50.208;18.988;2023-02-28T06:58:49;99328.56;;;0.60;72.86
20350;BME280;10332;50.208;18.988;2023-02-28T07:01:18;99342.06;;;0.83;72.17
20350;BME280;10332;50.208;18.988;2023-02-28T07:03:46;99337.72;;;0.90;71.95
20350;BME280;10332;50.208;18.988;2023-02-28T07:06:23;99349.56;;;1.09;71.11
20350;BME280;10332;50.208;18.988;2023-02-28T07:08:54;99349.66;;;0.97;70.77
20350;BME280;10332;50.208;18.988;2023-02-28T07:11:25;99357.28;;;1.06;70.16
20350;BME280;10332;50.208;18.988;2023-02-28T07:13:54;99354.69;;;1.09;69.82
20350;BME280;10332;50.208;18.988;2023-02-28T07:16:24;99347.56;;;1.35;69.34
20350;BME280;10332;50.208;18.988;2023-02-28T07:18:53;99352.72;;;1.35;68.71
20350;BME280;10332;50.208;18.988;2023-02-28T07:21:22;99345.84;;;1.34;68.78
20350;BME280;10332;50.208;18.988;2023-02-28T07:23:50;99353.31;;;1.57;68.02
20350;BME280;10332;50.208;18.988;2023-02-28T07:26:20;99353.34;;;1.56;67.40
20350;BME280;10332;50.208;18.988;2023-02-28T07:28:48;99354.78;;;1.77;66.50
20350;BME280;10332;50.208;18.988;2023-02-28T07:31:17;99352.09;;;1.86;65.34
20350;BME280;10332;50.208;18.988;2023-02-28T07:33:46;99344.13;;;2.04;65.29
20350;BME280;10332;50.208;18.988;2023-02-28T07:36:16;99352.81;;;1.98;64.63
20350;BME280;10332;50.208;18.988;2023-02-28T07:38:48;99359.28;;;2.27;63.46
20350;BME280;10332;50.208;18.988;2023-02-28T07:41:20;99350.13;;;2.65;61.61
20350;BME280;10332;50.208;18.988;2023-02-28T07:43:48;99358.81;;;2.58;61.07
20350;BME280;10332;50.208;18.988;2023-02-28T07:46:16;99354.13;;;2.82;60.46
20350;BME280;10332;50.208;18.988;2023-02-28T07:48:45;99346.13;;;2.96;60.26
20350;BME280;10332;50.208;18.988;2023-02-28T07:51:12;99353.19;;;3.36;60.14
20350;BME280;10332;50.208;18.988;2023-02-28T07:53:40;99354.13;;;3.75;58.57
20350;BME280;10332;50.208;18.988;2023-02-28T07:56:08;99358.47;;;4.15;57.20
20350;BME280;10332;50.208;18.988;2023-02-28T07:58:35;99352.66;;;4.05;56.21
20350;BME280;10332;50.208;18.988;2023-02-28T08:01:09;99353.97;;;4.62;55.42
20350;BME280;10332;50.208;18.988;2023-02-28T08:03:38;99358.22;;;5.63;54.09
20350;BME280;10332;50.208;18.988;2023-02-28T08:06:16;99349.47;;;6.56;50.31
20350;BME280;10332;50.208;18.988;2023-02-28T08:08:43;99356.91;;;8.15;48.22
20350;BME280;10332;50.208;18.988;2023-02-28T08:11:11;99349.63;;;9.72;44.56
20350;BME280;10332;50.208;18.988;2023-02-28T08:13:39;99345.91;;;9.96;43.30
20350;BME280;10332;50.208;18.988;2023-02-28T08:16:06;99355.34;;;10.38;41.97
20350;BME280;10332;50.208;18.988;2023-02-28T08:18:34;99346.00;;;10.13;41.34
20350;BME280;10332;50.208;18.988;2023-02-28T08:21:21;99356.56;;;9.91;42.03
20350;BME280;10332;50.208;18.988;2023-02-28T08:23:50;99354.13;;;10.07;40.73
20350;BME280;10332;50.208;18.988;2023-02-28T08:26:19;99359.78;;;9.78;41.01
20350;BME280;10332;50.208;18.988;2023-02-28T08:28:46;99363.13;;;9.81;40.37
20350;BME280;10332;50.208;18.988;2023-02-28T08:31:16;99351.97;;;9.78;40.30
20350;BME280;10332;50.208;18.988;2023-02-28T08:33:43;99346.84;;;10.14;40.16
20350;BME280;10332;50.208;18.988;2023-02-28T08:36:17;99354.50;;;9.79;40.85
20350;BME280;10332;50.208;18.988;2023-02-28T08:38:45;99350.56;;;9.50;40.66
20350;BME280;10332;50.208;18.988;2023-02-28T08:41:13;99357.22;;;9.57;40.99
20350;BME280;10332;50.208;18.988;2023-02-28T08:43:41;99356.22;;;9.80;40.51
20350;BME280;10332;50.208;18.988;2023-02-28T08:46:12;99350.63;;;9.49;39.64
20350;BME280;10332;50.208;18.988;2023-02-28T08:48:40;99358.56;;;9.05;39.78
20350;BME280;10332;50.208;18.988;2023-02-28T08:51:13;99359.25;;;9.10;39.33
20350;BME280;10332;50.208;18.988;2023-02-28T08:53:44;99357.50;;;8.89;39.43
20350;BME280;10332;50.208;18.988;2023-02-28T08:56:14;99359.19;;;8.47;38.45
20350;BME280;10332;50.208;18.988;2023-02-28T08:58:44;99357.03;;;9.01;38.55
20350;BME280;10332;50.208;18.988;2023-02-28T09:01:22;99357.69;;;9.26;37.94
20350;BME280;10332;50.208;18.988;2023-02-28T09:03:51;99364.00;;;9.00;38.03
20350;BME280;10332;50.208;18.988;2023-02-28T09:06:22;99363.28;;;9.17;38.25
20350;BME280;10332;50.208;18.988;2023-02-28T09:08:51;99361.84;;;8.90;37.43
20350;BME280;10332;50.208;18.988;2023-02-28T09:11:19;99361.97;;;9.07;37.27
20350;BME280;10332;50.208;18.988;2023-02-28T09:13:47;99362.00;;;8.85;37.09
20350;BME280;10332;50.208;18.988;2023-02-28T09:16:17;99353.56;;;10.74;35.60
20350;BME280;10332;50.208;18.988;2023-02-28T09:18:45;99360.59;;;11.43;33.51
20350;BME280;10332;50.208;18.988;2023-02-28T09:21:16;99352.75;;;13.48;31.11
20350;BME280;10332;50.208;18.988;2023-02-28T09:23:46;99353.84;;;14.98;29.34
20350;BME280;10332;50.208;18.988;2023-02-28T09:26:24;99347.81;;;14.83;28.73
20350;BME280;10332;50.208;18.988;2023-02-28T09:28:53;99348.03;;;14.10;29.02
20350;BME280;10332;50.208;18.988;2023-02-28T09:31:27;99351.88;;;13.48;29.53
20350;BME280;10332;50.208;18.988;2023-02-28T09:33:57;99354.94;;;12.96;29.72
20350;BME280;10332;50.208;18.988;2023-02-28T09:36:26;99347.09;;;12.48;30.55
20350;BME280;10332;50.208;18.988;2023-02-28T09:39:10;99351.19;;;12.54;30.39
20350;BME280;10332;50.208;18.988;2023-02-28T09:41:47;99347.41;;;12.90;31.04
20350;BME280;10332;50.208;18.988;2023-02-28T09:44:39;99354.94;;;12.96;30.25
20350;BME280;10332;50.208;18.988;2023-02-28T09:47:36;99368.31;;;11.97;30.41
20350;BME280;10332;50.208;18.988;2023-02-28T09:52:54;99351.53;;;14.93;28.78
20350;BME280;10332;50.208;18.988;2023-02-28T09:55:38;99353.75;;;16.76;26.25
20350;BME280;10332;50.208;18.988;2023-02-28T09:58:42;99354.41;;;19.68;23.43
20350;BME280;10332;50.208;18.988;2023-02-28T10:07:41;99362.09;;;29.17;16.01
20350;BME280;10332;50.208;18.988;2023-02-28T10:10:43;99366.16;;;31.73;14.09
20350;BME280;10332;50.208;18.988;2023-02-28T10:16:11;99361.25;;;34.78;12.12
20350;BME280;10332;50.208;18.988;2023-02-28T10:18:48;99363.38;;;36.70;11.42
20350;BME280;10332;50.208;18.988;2023-02-28T10:21:34;99358.78;;;37.83;11.16
20350;BME280;10332;50.208;18.988;2023-02-28T10:24:29;99359.53;;;37.78;10.05
20350;BME280;10332;50.208;18.988;2023-02-28T10:29:47;99350.63;;;40.56;9.78
20350;BME280;10332;50.208;18.988;2023-02-28T10:32:26;99344.69;;;40.90;9.13
20350;BME280;10332;50.208;18.988;2023-02-28T10:35:01;99349.28;;;40.79;9.26
20350;BME280;10332;50.208;18.988;2023-02-28T10:37:34;99344.44;;;41.47;9.14
20350;BME280;10332;50.208;18.988;2023-02-28T10:40:37;99341.31;;;42.00;8.29
20350;BME280;10332;50.208;18.988;2023-02-28T10:46:09;99337.19;;;42.02;7.84
20350;BME280;10332;50.208;18.988;2023-02-28T10:48:45;99330.22;;;43.77;7.70
20350;BME280;10332;50.208;18.988;2023-02-28T10:51:18;99329.44;;;42.19;7.71
20350;BME280;10332;50.208;18.988;2023-02-28T10:53:53;99324.13;;;41.07;8.15
20350;BME280;10332;50.208;18.988;2023-02-28T10:56:29;99323.28;;;41.63;8.70
20350;BME280;10332;50.208;18.988;2023-02-28T11:01:45;99312.13;;;42.73;8.00
20350;BME280;10332;50.208;18.988;2023-02-28T11:07:22;99316.63;;;47.10;6.70
20350;BME280;10332;50.208;18.988;2023-02-28T11:09:58;99310.44;;;47.13;6.93
20350;BME280;10332;50.208;18.988;2023-02-28T11:12:38;99305.09;;;44.50;6.83
20350;BME280;10332;50.208;18.988;2023-02-28T11:15:27;99304.69;;;45.13;6.80
20350;BME280;10332;50.208;18.988;2023-02-28T11:20:54;99296.34;;;43.52;6.85
20350;BME280;10332;50.208;18.988;2023-02-28T11:23:26;99293.47;;;45.23;6.81
20350;BME280;10332;50.208;18.988;2023-02-28T11:25:59;99289.34;;;46.22;7.08
20350;BME280;10332;50.208;18.988;2023-02-28T11:28:33;99286.19;;;48.29;6.45
20350;BME280;10332;50.208;18.988;2023-02-28T11:33:55;99281.63;;;47.76;6.04
20350;BME280;10332;50.208;18.988;2023-02-28T11:36:29;99272.59;;;48.19;6.75
20350;BME280;10332;50.208;18.988;2023-02-28T11:39:11;99276.41;;;48.66;6.66
20350;BME280;10332;50.208;18.988;2023-02-28T11:52:56;99257.69;;;49.27;5.71
20350;BME280;10332;50.208;18.988;2023-02-28T11:55:39;99242.13;;;48.27;5.40
20350;BME280;10332;50.208;18.988;2023-02-28T11:58:37;99244.13;;;48.36;5.53
20350;BME280;10332;50.208;18.988;2023-02-28T12:01:33;99236.94;;;47.20;5.95
20350;BME280;10332;50.208;18.988;2023-02-28T12:13:20;99233.06;;;46.04;6.78
20350;BME280;10332;50.208;18.988;2023-02-28T12:19:26;99227.88;;;47.86;6.33
20350;BME280;10332;50.208;18.988;2023-02-28T12:22:31;99235.69;;;49.13;5.57
20350;BME280;10332;50.208;18.988;2023-02-28T12:27:39;99226.88;;;47.02;5.84
20350;BME280;10332;50.208;18.988;2023-02-28T12:30:21;99225.09;;;47.06;6.28
20350;BME280;10332;50.208;18.988;2023-02-28T12:33:11;99235.00;;;45.21;6.25
20350;BME280;10332;50.208;18.988;2023-02-28T12:35:58;99234.69;;;44.39;6.33
20350;BME280;10332;50.208;18.988;2023-02-28T12:38:38;99220.44;;;44.69;6.70
20350;BME280;10332;50.208;18.988;2023-02-28T12:41:42;99219.16;;;45.96;6.28
20350;BME280;10332;50.208;18.988;2023-02-28T12:44:27;99216.41;;;45.13;6.19
20350;BME280;10332;50.208;18.988;2023-02-28T12:47:15;99209.75;;;44.82;6.42
20350;BME280;10332;50.208;18.988;2023-02-28T12:49:53;99210.50;;;45.61;6.29
20350;BME280;10332;50.208;18.988;2023-02-28T12:52:35;99214.78;;;46.98;6.10
20350;BME280;10332;50.208;18.988;2023-02-28T12:55:51;99210.34;;;46.88;5.82
20350;BME280;10332;50.208;18.988;2023-02-28T12:58:48;99209.13;;;46.14;6.03
20350;BME280;10332;50.208;18.988;2023-02-28T13:01:52;99209.66;;;46.38;6.05
20350;BME280;10332;50.208;18.988;2023-02-28T13:10:13;99207.53;;;48.08;5.81
20350;BME280;10332;50.208;18.988;2023-02-28T13:12:53;99203.25;;;46.74;6.02
20350;BME280;10332;50.208;18.988;2023-02-28T13:15:26;99209.13;;;45.17;6.45
20350;BME280;10332;50.208;18.988;2023-02-28T13:17:59;99196.09;;;45.78;6.42
20350;BME280;10332;50.208;18.988;2023-02-28T13:20:34;99197.84;;;45.33;6.15
20350;BME280;10332;50.208;18.988;2023-02-28T13:23:03;99196.53;;;46.07;6.55
20350;BME280;10332;50.208;18.988;2023-02-28T13:28:12;99187.38;;;44.69;6.09
20350;BME280;10332;50.208;18.988;2023-02-28T13:38:51;99177.41;;;43.08;6.94
20350;BME280;10332;50.208;18.988;2023-02-28T13:41:47;99172.03;;;41.80;7.13
20350;BME280;10332;50.208;18.988;2023-02-28T13:44:22;99177.28;;;42.26;7.53
20350;BME280;10332;50.208;18.988;2023-02-28T13:54:54;99171.41;;;41.13;7.06
20350;BME280;10332;50.208;18.988;2023-02-28T14:06:15;99164.19;;;41.48;7.71
20350;BME280;10332;50.208;18.988;2023-02-28T14:11:34;99148.59;;;41.98;7.56
20350;BME280;10332;50.208;18.988;2023-02-28T14:14:05;99139.75;;;42.45;7.43
20350;BME280;10332;50.208;18.988;2023-02-28T14:16:41;99142.97;;;41.68;7.21
20350;BME280;10332;50.208;18.988;2023-02-28T14:29:56;99137.50;;;38.97;8.25
20350;BME280;10332;50.208;18.988;2023-02-28T14:35:42;99128.06;;;38.41;8.74
20350;BME280;10332;50.208;18.988;2023-02-28T14:38:25;99136.44;;;38.29;8.56
20350;BME280;10332;50.208;18.988;2023-02-28T14:40:58;99126.69;;;38.38;8.64
20350;BME280;10332;50.208;18.988;2023-02-28T14:43:28;99130.97;;;37.14;9.24
20350;BME280;10332;50.208;18.988;2023-02-28T14:46:01;99127.88;;;36.72;9.14
20350;BME280;10332;50.208;18.988;2023-02-28T14:48:29;99116.91;;;36.84;9.00
20350;BME280;10332;50.208;18.988;2023-02-28T14:51:00;99122.13;;;36.85;8.98
20350;BME280;10332;50.208;18.988;2023-02-28T14:53:36;99119.44;;;34.56;9.95
20350;BME280;10332;50.208;18.988;2023-02-28T14:56:05;99114.56;;;33.44;10.70
20350;BME280;10332;50.208;18.988;2023-02-28T14:58:34;99117.38;;;32.94;10.77
20350;BME280;10332;50.208;18.988;2023-02-28T15:01:04;99110.34;;;32.12;11.36
20350;BME280;10332;50.208;18.988;2023-02-28T15:03:39;99122.03;;;30.76;11.93
20350;BME280;10332;50.208;18.988;2023-02-28T15:06:17;99115.75;;;28.51;12.96
20350;BME280;10332;50.208;18.988;2023-02-28T15:08:46;99119.25;;;27.88;13.65
20350;BME280;10332;50.208;18.988;2023-02-28T15:11:19;99116.50;;;28.03;13.33
20350;BME280;10332;50.208;18.988;2023-02-28T15:13:53;99122.19;;;26.22;14.40
20350;BME280;10332;50.208;18.988;2023-02-28T15:16:37;99115.13;;;26.67;14.27
20350;BME280;10332;50.208;18.988;2023-02-28T15:19:30;99116.53;;;25.24;14.91
20350;BME280;10332;50.208;18.988;2023-02-28T15:22:07;99125.47;;;23.94;16.09
20350;BME280;10332;50.208;18.988;2023-02-28T15:24:45;99115.59;;;23.87;16.13
20350;BME280;10332;50.208;18.988;2023-02-28T15:27:24;99116.13;;;23.06;16.75
20350;BME280;10332;50.208;18.988;2023-02-28T15:29:59;99117.16;;;21.27;17.92
20350;BME280;10332;50.208;18.988;2023-02-28T15:32:38;99119.84;;;20.02;18.29
20350;BME280;10332;50.208;18.988;2023-02-28T15:35:31;99127.00;;;17.75;20.46
20350;BME280;10332;50.208;18.988;2023-02-28T15:38:18;99130.28;;;16.43;21.55
20350;BME280;10332;50.208;18.988;2023-02-28T15:40:55;99124.47;;;15.18;22.96
20350;BME280;10332;50.208;18.988;2023-02-28T15:43:32;99136.81;;;14.54;23.59
20350;BME280;10332;50.208;18.988;2023-02-28T15:46:05;99133.72;;;13.68;24.95
20350;BME280;10332;50.208;18.988;2023-02-28T15:48:45;99133.09;;;12.93;25.57
20350;BME280;10332;50.208;18.988;2023-02-28T15:51:23;99131.97;;;12.55;26.48
20350;BME280;10332;50.208;18.988;2023-02-28T15:53:58;99136.44;;;12.08;26.73